sensor_id;sensor_type;location;lat;lon;timestamp;pressure;altitude;pressure_sealevel;temperature;humidity
45345;BME280;31078;48.304;11.896;2023-06-24T00:01:28;97127.38;;;16.28;85.96
45345;BME280;31078;48.304;11.896;2023-06-24T00:03:56;97130.31;;;16.23;85.71
45345;BME280;31078;48.304;11.896;2023-06-24T00:06:24;97126.72;;;16.31;85.66
45345;BME280;31078;48.304;11.896;2023-06-24T00:08:52;97132.94;;;16.40;85.90
45345;BME280;31078;48.304;11.896;2023-06-24T00:11:25;97136.38;;;16.16;85.99
45345;BME280;31078;48.304;11.896;2023-06-24T00:13:52;97135.69;;;16.20;85.98
45345;BME280;31078;48.304;11.896;2023-06-24T00:16:18;97131.00;;;16.20;86.42
45345;BME280;31078;48.304;11.896;2023-06-24T00:18:53;97132.63;;;16.21;86.62
45345;BME280;31078;48.304;11.896;2023-06-24T00:21:25;97131.00;;;16.20;86.42
45345;BME280;31078;48.304;11.896;2023-06-24T00:23:55;97134.22;;;16.22;86.14
45345;BME280;31078;48.304;11.896;2023-06-24T00:26:22;97130.94;;;16.29;85.57
45345;BME280;31078;48.304;11.896;2023-06-24T00:28:48;97141.31;;;16.23;86.13
45345;BME280;31078;48.304;11.896;2023-06-24T00:31:14;97138.25;;;16.25;85.86
45345;BME280;31078;48.304;11.896;2023-06-24T00:33:41;97130.41;;;16.35;85.99
45345;BME280;31078;48.304;11.896;2023-06-24T00:36:08;97130.88;;;16.16;85.36
45345;BME280;31078;48.304;11.896;2023-06-24T00:38:38;97141.31;;;16.23;85.38
45345;BME280;31078;48.304;11.896;2023-06-24T00:41:05;97128.72;;;16.22;85.36
45345;BME280;31078;48.304;11.896;2023-06-24T00:43:32;97129.88;;;16.21;85.48
45345;BME280;31078;48.304;11.896;2023-06-24T00:45:59;97130.81;;;16.25;85.20
45345;BME280;31078;48.304;11.896;2023-06-24T00:48:26;97118.00;;;16.29;85.35
45345;BME280;31078;48.304;11.896;2023-06-24T00:50:52;97121.75;;;16.25;85.70
45345;BME280;31078;48.304;11.896;2023-06-24T00:53:19;97106.72;;;16.22;85.77
45345;BME280;31078;48.304;11.896;2023-06-24T00:55:51;97114.13;;;16.30;86.31
45345;BME280;31078;48.304;11.896;2023-06-24T00:58:18;97107.94;;;16.33;86.15
45345;BME280;31078;48.304;11.896;2023-06-24T01:00:46;97107.00;;;16.29;85.97
45345;BME280;31078;48.304;11.896;2023-06-24T01:03:14;97095.22;;;16.29;85.65
45345;BME280;31078;48.304;11.896;2023-06-24T01:05:42;97096.88;;;16.21;85.75
45345;BME280;31078;48.304;11.896;2023-06-24T01:08:09;97101.19;;;16.31;85.91
45345;BME280;31078;48.304;11.896;2023-06-24T01:10:40;97103.38;;;16.37;85.66
45345;BME280;31078;48.304;11.896;2023-06-24T01:13:08;97098.56;;;16.34;85.00
45345;BME280;31078;48.304;11.896;2023-06-24T01:15:35;97093.72;;;16.31;84.87
45345;BME280;31078;48.304;11.896;2023-06-24T01:18:06;97097.28;;;16.32;85.11
45345;BME280;31078;48.304;11.896;2023-06-24T01:20:39;97091.72;;;16.40;84.91
45345;BME280;31078;48.304;11.896;2023-06-24T01:23:29;97097.00;;;16.46;84.07
45345;BME280;31078;48.304;11.896;2023-06-24T01:26:14;97096.31;;;16.49;83.63
45345;BME280;31078;48.304;11.896;2023-06-24T01:29:14;97100.00;;;16.53;83.29
45345;BME280;31078;48.304;11.896;2023-06-24T01:31:50;97093.69;;;16.52;83.55
45345;BME280;31078;48.304;11.896;2023-06-24T01:34:23;97096.09;;;16.54;83.70
45345;BME280;31078;48.304;11.896;2023-06-24T01:37:05;97091.97;;;16.48;83.88
45345;BME280;31078;48.304;11.896;2023-06-24T01:39:38;97096.00;;;16.50;83.87
45345;BME280;31078;48.304;11.896;2023-06-24T01:42:11;97086.25;;;16.53;83.59
45345;BME280;31078;48.304;11.896;2023-06-24T01:44:42;97090.16;;;16.52;82.87
45345;BME280;31078;48.304;11.896;2023-06-24T01:47:11;97088.53;;;16.51;82.81
45345;BME280;31078;48.304;11.896;2023-06-24T01:49:41;97086.22;;;16.40;82.58
45345;BME280;31078;48.304;11.896;2023-06-24T01:52:09;97081.13;;;16.30;82.93
45345;BME280;31078;48.304;11.896;2023-06-24T01:54:38;97086.09;;;16.37;83.32
45345;BME280;31078;48.304;11.896;2023-06-24T01:57:06;97083.69;;;16.35;82.77
45345;BME280;31078;48.304;11.896;2023-06-24T01:59:34;97080.72;;;16.40;83.43
45345;BME280;31078;48.304;11.896;2023-06-24T02:02:03;97086.66;;;16.42;83.05
45345;BME280;31078;48.304;11.896;2023-06-24T02:04:32;97083.47;;;16.40;82.93
45345;BME280;31078;48.304;11.896;2023-06-24T02:07:01;97082.31;;;16.41;82.50
45345;BME280;31078;48.304;11.896;2023-06-24T02:09:28;97085.84;;;16.30;82.78
45345;BME280;31078;48.304;11.896;2023-06-24T02:11:58;97089.72;;;16.29;83.13
45345;BME280;31078;48.304;11.896;2023-06-24T02:14:26;97087.97;;;16.24;83.09
45345;BME280;31078;48.304;11.896;2023-06-24T02:16:55;97083.69;;;16.35;83.18
45345;BME280;31078;48.304;11.896;2023-06-24T02:19:24;97085.72;;;16.38;83.38
45345;BME280;31078;48.304;11.896;2023-06-24T02:21:54;97079.13;;;16.39;83.82
45345;BME280;31078;48.304;11.896;2023-06-24T02:24:23;97086.66;;;16.42;83.53
45345;BME280;31078;48.304;11.896;2023-06-24T02:26:50;97097.22;;;16.40;82.91
45345;BME280;31078;48.304;11.896;2023-06-24T02:29:17;97100.16;;;16.35;83.12
45345;BME280;31078;48.304;11.896;2023-06-24T02:31:44;97100.41;;;16.42;83.79
45345;BME280;31078;48.304;11.896;2023-06-24T02:34:11;97103.66;;;16.44;83.04
45345;BME280;31078;48.304;11.896;2023-06-24T02:36:38;97106.72;;;16.43;82.90
45345;BME280;31078;48.304;11.896;2023-06-24T02:39:05;97106.91;;;16.38;83.06
45345;BME280;31078;48.304;11.896;2023-06-24T02:41:32;97110.16;;;16.40;83.28
45345;BME280;31078;48.304;11.896;2023-06-24T02:43:59;97105.66;;;16.35;83.17
45345;BME280;31078;48.304;11.896;2023-06-24T02:46:26;97111.16;;;16.35;83.34
45345;BME280;31078;48.304;11.896;2023-06-24T02:48:56;97105.78;;;16.39;83.62
45345;BME280;31078;48.304;11.896;2023-06-24T02:51:25;97113.72;;;16.40;83.23
45345;BME280;31078;48.304;11.896;2023-06-24T02:53:52;97112.09;;;16.39;82.72
45345;BME280;31078;48.304;11.896;2023-06-24T02:56:20;97106.59;;;16.39;82.86
45345;BME280;31078;48.304;11.896;2023-06-24T02:58:47;97120.00;;;16.41;82.92
45345;BME280;31078;48.304;11.896;2023-06-24T03:01:14;97111.41;;;16.42;82.72
45345;BME280;31078;48.304;11.896;2023-06-24T03:03:42;97118.13;;;16.33;82.85
45345;BME280;31078;48.304;11.896;2023-06-24T03:06:08;97127.25;;;16.25;83.41
45345;BME280;31078;48.304;11.896;2023-06-24T03:08:37;97130.59;;;16.30;83.20
45345;BME280;31078;48.304;11.896;2023-06-24T03:11:04;97127.38;;;16.28;83.43
45345;BME280;31078;48.304;11.896;2023-06-24T03:13:32;97129.59;;;16.35;83.34
45345;BME280;31078;48.304;11.896;2023-06-24T03:15:59;97133.16;;;16.35;83.14
45345;BME280;31078;48.304;11.896;2023-06-24T03:18:25;97130.84;;;16.37;83.42
45345;BME280;31078;48.304;11.896;2023-06-24T03:20:52;97136.84;;;16.39;83.12
45345;BME280;31078;48.304;11.896;2023-06-24T03:23:18;97131.88;;;16.33;83.10
45345;BME280;31078;48.304;11.896;2023-06-24T03:25:45;97144.16;;;16.35;83.05
45345;BME280;31078;48.304;11.896;2023-06-24T03:28:11;97148.50;;;16.36;82.65
45345;BME280;31078;48.304;11.896;2023-06-24T03:30:39;97152.84;;;16.37;83.09
45345;BME280;31078;48.304;11.896;2023-06-24T03:33:05;97155.25;;;16.39;83.17
45345;BME280;31078;48.304;11.896;2023-06-24T03:35:32;97157.69;;;16.40;82.86
45345;BME280;31078;48.304;11.896;2023-06-24T03:37:58;97155.13;;;16.35;82.58
45345;BME280;31078;48.304;11.896;2023-06-24T03:40:25;97161.59;;;16.39;82.79
45345;BME280;31078;48.304;11.896;2023-06-24T03:42:51;97162.69;;;16.38;82.76
45345;BME280;31078;48.304;11.896;2023-06-24T03:45:18;97162.44;;;16.31;82.60
45345;BME280;31078;48.304;11.896;2023-06-24T03:47:46;97161.28;;;16.32;82.96
45345;BME280;31078;48.304;11.896;2023-06-24T03:50:12;97156.75;;;16.36;82.99
45345;BME280;31078;48.304;11.896;2023-06-24T03:52:38;97162.63;;;16.26;82.54
45345;BME280;31078;48.304;11.896;2023-06-24T03:55:05;97169.00;;;16.18;83.19
45345;BME280;31078;48.304;11.896;2023-06-24T03:57:32;97174.97;;;16.20;82.56
45345;BME280;31078;48.304;11.896;2023-06-24T03:59:58;97176.19;;;16.31;82.13
45345;BME280;31078;48.304;11.896;2023-06-24T04:02:25;97170.28;;;16.41;82.49
45345;BME280;31078;48.304;11.896;2023-06-24T04:04:53;97168.13;;;16.47;82.05
45345;BME280;31078;48.304;11.896;2023-06-24T04:07:21;97168.94;;;16.48;81.84
45345;BME280;31078;48.304;11.896;2023-06-24T04:09:54;97160.47;;;16.53;81.90
45345;BME280;31078;48.304;11.896;2023-06-24T04:12:21;97159.69;;;16.52;81.23
45345;BME280;31078;48.304;11.896;2023-06-24T04:14:47;97162.44;;;16.52;81.43
45345;BME280;31078;48.304;11.896;2023-06-24T04:17:14;97163.69;;;16.55;81.76
45345;BME280;31078;48.304;11.896;2023-06-24T04:19:40;97161.41;;;16.57;81.56
45345;BME280;31078;48.304;11.896;2023-06-24T04:22:09;97160.28;;;16.58;82.26
45345;BME280;31078;48.304;11.896;2023-06-24T04:24:35;97166.22;;;16.60;82.02
45345;BME280;31078;48.304;11.896;2023-06-24T04:27:02;97166.38;;;16.42;80.76
45345;BME280;31078;48.304;11.896;2023-06-24T04:29:28;97173.78;;;16.51;80.69
45345;BME280;31078;48.304;11.896;2023-06-24T04:31:55;97173.78;;;16.51;81.51
45345;BME280;31078;48.304;11.896;2023-06-24T04:34:21;97169.13;;;16.42;81.44
45345;BME280;31078;48.304;11.896;2023-06-24T04:36:48;97166.66;;;16.50;81.53
45345;BME280;31078;48.304;11.896;2023-06-24T04:39:16;97175.03;;;16.53;81.59
45345;BME280;31078;48.304;11.896;2023-06-24T04:41:42;97170.88;;;16.68;81.02
45345;BME280;31078;48.304;11.896;2023-06-24T04:44:09;97176.19;;;16.73;80.94
45345;BME280;31078;48.304;11.896;2023-06-24T04:46:35;97177.94;;;16.78;80.39
45345;BME280;31078;48.304;11.896;2023-06-24T04:49:02;97177.13;;;16.77;80.19
45345;BME280;31078;48.304;11.896;2023-06-24T04:51:29;97176.19;;;16.73;79.55
45345;BME280;31078;48.304;11.896;2023-06-24T04:53:55;97183.41;;;16.57;79.73
45345;BME280;31078;48.304;11.896;2023-06-24T04:56:23;97178.97;;;16.64;79.42
45345;BME280;31078;48.304;11.896;2023-06-24T04:58:50;97187.81;;;16.70;79.83
45345;BME280;31078;48.304;11.896;2023-06-24T05:01:17;97184.22;;;16.78;80.32
45345;BME280;31078;48.304;11.896;2023-06-24T05:03:43;97190.88;;;16.77;80.41
45345;BME280;31078;48.304;11.896;2023-06-24T05:06:10;97187.63;;;16.75;80.60
45345;BME280;31078;48.304;11.896;2023-06-24T05:08:36;97183.16;;;16.50;80.54
45345;BME280;31078;48.304;11.896;2023-06-24T05:11:03;97194.16;;;16.50;81.01
45345;BME280;31078;48.304;11.896;2023-06-24T05:13:32;97192.94;;;16.38;81.97
45345;BME280;31078;48.304;11.896;2023-06-24T05:15:58;97188.78;;;16.53;81.48
45345;BME280;31078;48.304;11.896;2023-06-24T05:18:24;97189.25;;;16.55;83.07
45345;BME280;31078;48.304;11.896;2023-06-24T05:20:51;97200.78;;;16.49;83.10
45345;BME280;31078;48.304;11.896;2023-06-24T05:23:17;97200.56;;;16.54;83.61
45345;BME280;31078;48.304;11.896;2023-06-24T05:25:44;97193.31;;;16.70;82.95
45345;BME280;31078;48.304;11.896;2023-06-24T05:28:10;97198.44;;;16.80;82.74
45345;BME280;31078;48.304;11.896;2023-06-24T05:30:38;97197.91;;;16.87;81.87
45345;BME280;31078;48.304;11.896;2023-06-24T05:33:05;97209.91;;;16.82;79.66
45345;BME280;31078;48.304;11.896;2023-06-24T05:35:31;97203.94;;;16.80;80.15
45345;BME280;31078;48.304;11.896;2023-06-24T05:37:57;97210.50;;;16.88;79.27
45345;BME280;31078;48.304;11.896;2023-06-24T05:40:24;97194.75;;;16.97;79.36
45345;BME280;31078;48.304;11.896;2023-06-24T05:42:50;97197.59;;;17.01;79.27
45345;BME280;31078;48.304;11.896;2023-06-24T05:45:17;97197.66;;;17.13;78.48
45345;BME280;31078;48.304;11.896;2023-06-24T05:47:45;97207.75;;;17.21;78.42
45345;BME280;31078;48.304;11.896;2023-06-24T05:50:12;97207.53;;;17.26;78.09
45345;BME280;31078;48.304;11.896;2023-06-24T05:52:38;97215.34;;;17.24;75.83
45345;BME280;31078;48.304;11.896;2023-06-24T05:55:05;97219.03;;;17.28;76.31
45345;BME280;31078;48.304;11.896;2023-06-24T05:57:32;97213.03;;;17.26;74.93
45345;BME280;31078;48.304;11.896;2023-06-24T05:59:58;97208.00;;;17.28;74.67
45345;BME280;31078;48.304;11.896;2023-06-24T06:02:25;97210.06;;;17.31;75.41
45345;BME280;31078;48.304;11.896;2023-06-24T06:04:53;97210.97;;;17.23;77.03
45345;BME280;31078;48.304;11.896;2023-06-24T06:07:19;97217.31;;;17.36;77.05
45345;BME280;31078;48.304;11.896;2023-06-24T06:09:46;97216.28;;;17.40;75.93
45345;BME280;31078;48.304;11.896;2023-06-24T06:12:12;97219.75;;;17.50;76.62
45345;BME280;31078;48.304;11.896;2023-06-24T06:14:39;97226.16;;;17.54;76.19
45345;BME280;31078;48.304;11.896;2023-06-24T06:17:05;97227.09;;;17.58;76.75
45345;BME280;31078;48.304;11.896;2023-06-24T06:19:32;97222.28;;;17.55;76.44
45345;BME280;31078;48.304;11.896;2023-06-24T06:22:00;97226.72;;;17.47;75.91
45345;BME280;31078;48.304;11.896;2023-06-24T06:24:26;97223.19;;;17.59;76.56
45345;BME280;31078;48.304;11.896;2023-06-24T06:26:52;97213.44;;;17.61;75.18
45345;BME280;31078;48.304;11.896;2023-06-24T06:29:19;97222.50;;;17.50;73.72
45345;BME280;31078;48.304;11.896;2023-06-24T06:31:45;97220.91;;;17.61;73.58
45345;BME280;31078;48.304;11.896;2023-06-24T06:34:12;97223.41;;;17.54;75.30
45345;BME280;31078;48.304;11.896;2023-06-24T06:36:38;97219.53;;;17.55;74.85
45345;BME280;31078;48.304;11.896;2023-06-24T06:39:06;97221.13;;;17.68;75.93
45345;BME280;31078;48.304;11.896;2023-06-24T06:41:32;97217.94;;;17.66;74.40
45345;BME280;31078;48.304;11.896;2023-06-24T06:43:59;97228.38;;;17.60;73.96
45345;BME280;31078;48.304;11.896;2023-06-24T06:46:25;97222.53;;;17.74;74.91
45345;BME280;31078;48.304;11.896;2023-06-24T06:48:52;97219.00;;;17.73;73.62
45345;BME280;31078;48.304;11.896;2023-06-24T06:51:18;97216.94;;;17.83;73.57
45345;BME280;31078;48.304;11.896;2023-06-24T06:53:45;97224.19;;;17.87;74.09
45345;BME280;31078;48.304;11.896;2023-06-24T06:56:18;97224.41;;;17.94;74.53
45345;BME280;31078;48.304;11.896;2023-06-24T06:58:44;97225.31;;;17.98;73.90
45345;BME280;31078;48.304;11.896;2023-06-24T07:01:10;97226.25;;;18.03;73.71
45345;BME280;31078;48.304;11.896;2023-06-24T07:03:37;97219.81;;;17.98;72.51
45345;BME280;31078;48.304;11.896;2023-06-24T07:06:03;97219.44;;;18.00;73.02
45345;BME280;31078;48.304;11.896;2023-06-24T07:08:30;97220.25;;;18.13;72.64
45345;BME280;31078;48.304;11.896;2023-06-24T07:10:57;97221.41;;;18.12;71.14
45345;BME280;31078;48.304;11.896;2023-06-24T07:13:25;97219.56;;;18.16;71.19
45345;BME280;31078;48.304;11.896;2023-06-24T07:15:51;97219.44;;;18.24;70.16
45345;BME280;31078;48.304;11.896;2023-06-24T07:18:17;97221.41;;;18.24;70.26
45345;BME280;31078;48.304;11.896;2023-06-24T07:20:44;97219.56;;;18.16;69.67
45345;BME280;31078;48.304;11.896;2023-06-24T07:23:10;97214.97;;;18.20;69.12
45345;BME280;31078;48.304;11.896;2023-06-24T07:25:37;97223.22;;;18.20;68.15
45345;BME280;31078;48.304;11.896;2023-06-24T07:28:04;97225.06;;;18.16;68.50
45345;BME280;31078;48.304;11.896;2023-06-24T07:30:32;97227.03;;;18.15;69.22
45345;BME280;31078;48.304;11.896;2023-06-24T07:32:58;97231.28;;;18.13;69.84
45345;BME280;31078;48.304;11.896;2023-06-24T07:35:30;97223.25;;;18.08;68.80
45345;BME280;31078;48.304;11.896;2023-06-24T07:37:56;97231.50;;;18.20;67.31
45345;BME280;31078;48.304;11.896;2023-06-24T07:40:23;97227.84;;;18.28;67.74
45345;BME280;31078;48.304;11.896;2023-06-24T07:42:49;97228.03;;;18.35;62.55
45345;BME280;31078;48.304;11.896;2023-06-24T07:45:16;97226.91;;;18.24;65.69
45345;BME280;31078;48.304;11.896;2023-06-24T07:47:44;97223.22;;;18.32;63.58
45345;BME280;31078;48.304;11.896;2023-06-24T07:50:10;97228.97;;;18.39;62.87
45345;BME280;31078;48.304;11.896;2023-06-24T07:52:37;97229.41;;;18.41;62.10
45345;BME280;31078;48.304;11.896;2023-06-24T07:55:04;97233.88;;;18.46;61.18
45345;BME280;31078;48.304;11.896;2023-06-24T07:57:31;97239.47;;;18.74;61.51
45345;BME280;31078;48.304;11.896;2023-06-24T07:59:57;97236.22;;;18.84;57.98
45345;BME280;31078;48.304;11.896;2023-06-24T08:02:24;97241.41;;;19.14;58.52
45345;BME280;31078;48.304;11.896;2023-06-24T08:04:52;97234.69;;;19.27;54.30
45345;BME280;31078;48.304;11.896;2023-06-24T08:07:19;97234.34;;;19.44;57.44
45345;BME280;31078;48.304;11.896;2023-06-24T08:09:45;97232.44;;;19.61;59.78
45345;BME280;31078;48.304;11.896;2023-06-24T08:12:12;97234.50;;;19.51;52.65
45345;BME280;31078;48.304;11.896;2023-06-24T08:14:38;97234.59;;;19.39;51.76
45345;BME280;31078;48.304;11.896;2023-06-24T08:17:05;97236.97;;;19.25;50.56
45345;BME280;31078;48.304;11.896;2023-06-24T08:19:31;97233.00;;;19.38;54.58
45345;BME280;31078;48.304;11.896;2023-06-24T08:21:59;97230.28;;;19.70;51.58
45345;BME280;31078;48.304;11.896;2023-06-24T08:24:25;97222.09;;;19.73;54.84
45345;BME280;31078;48.304;11.896;2023-06-24T08:26:52;97227.53;;;19.86;51.11
45345;BME280;31078;48.304;11.896;2023-06-24T08:29:19;97221.63;;;20.03;55.20
45345;BME280;31078;48.304;11.896;2023-06-24T08:31:45;97221.88;;;20.14;52.66
45345;BME280;31078;48.304;11.896;2023-06-24T08:34:12;97221.56;;;19.99;51.07
45345;BME280;31078;48.304;11.896;2023-06-24T08:36:38;97221.38;;;19.92;52.38
45345;BME280;31078;48.304;11.896;2023-06-24T08:39:07;97222.97;;;19.93;52.52
45345;BME280;31078;48.304;11.896;2023-06-24T08:41:34;97218.25;;;19.94;57.38
45345;BME280;31078;48.304;11.896;2023-06-24T08:44:01;97221.63;;;20.03;54.87
45345;BME280;31078;48.304;11.896;2023-06-24T08:46:27;97219.66;;;20.03;54.65
45345;BME280;31078;48.304;11.896;2023-06-24T08:48:59;97222.94;;;20.25;55.97
45345;BME280;31078;48.304;11.896;2023-06-24T08:51:31;97211.81;;;20.56;56.06
45345;BME280;31078;48.304;11.896;2023-06-24T08:54:01;97214.03;;;20.86;53.97
45345;BME280;31078;48.304;11.896;2023-06-24T08:56:30;97222.66;;;21.23;54.32
45345;BME280;31078;48.304;11.896;2023-06-24T08:58:56;97222.06;;;21.30;52.70
45345;BME280;31078;48.304;11.896;2023-06-24T09:01:23;97216.91;;;21.51;53.52
45345;BME280;31078;48.304;11.896;2023-06-24T09:03:51;97218.25;;;21.84;53.32
45345;BME280;31078;48.304;11.896;2023-06-24T09:06:17;97220.13;;;22.03;51.55
45345;BME280;31078;48.304;11.896;2023-06-24T09:08:52;97213.38;;;22.00;50.12
45345;BME280;31078;48.304;11.896;2023-06-24T09:11:22;97216.88;;;21.97;50.02
45345;BME280;31078;48.304;11.896;2023-06-24T09:13:54;97217.44;;;21.60;48.35
45345;BME280;31078;48.304;11.896;2023-06-24T09:16:20;97212.34;;;21.62;50.18
45345;BME280;31078;48.304;11.896;2023-06-24T09:18:48;97213.84;;;21.56;51.79
45345;BME280;31078;48.304;11.896;2023-06-24T09:21:21;97210.66;;;21.16;50.15
45345;BME280;31078;48.304;11.896;2023-06-24T09:23:51;97211.84;;;20.95;51.82
45345;BME280;31078;48.304;11.896;2023-06-24T09:26:18;97208.34;;;20.79;53.80
45345;BME280;31078;48.304;11.896;2023-06-24T09:28:47;97210.66;;;20.77;55.16
45345;BME280;31078;48.304;11.896;2023-06-24T09:31:15;97215.84;;;20.78;54.01
45345;BME280;31078;48.304;11.896;2023-06-24T09:33:41;97209.94;;;20.99;53.46
45345;BME280;31078;48.304;11.896;2023-06-24T09:36:11;97210.22;;;21.33;52.31
45345;BME280;31078;48.304;11.896;2023-06-24T09:38:38;97197.97;;;21.80;53.08
45345;BME280;31078;48.304;11.896;2023-06-24T09:41:06;97195.81;;;22.16;52.62
45345;BME280;31078;48.304;11.896;2023-06-24T09:43:34;97199.94;;;22.29;49.13
45345;BME280;31078;48.304;11.896;2023-06-24T09:46:01;97204.03;;;22.35;49.51
45345;BME280;31078;48.304;11.896;2023-06-24T09:48:29;97202.47;;;22.37;49.69
45345;BME280;31078;48.304;11.896;2023-06-24T09:50:58;97207.50;;;22.05;50.18
45345;BME280;31078;48.304;11.896;2023-06-24T09:53:26;97197.94;;;22.03;49.68
45345;BME280;31078;48.304;11.896;2023-06-24T09:55:53;97196.88;;;21.84;51.82
45345;BME280;31078;48.304;11.896;2023-06-24T09:58:20;97194.41;;;21.79;50.03
45345;BME280;31078;48.304;11.896;2023-06-24T10:00:48;97191.41;;;21.88;49.98
45345;BME280;31078;48.304;11.896;2023-06-24T10:03:15;97191.19;;;22.00;49.40
45345;BME280;31078;48.304;11.896;2023-06-24T10:05:43;97191.78;;;22.13;47.49
45345;BME280;31078;48.304;11.896;2023-06-24T10:08:13;97191.00;;;22.12;47.70
45345;BME280;31078;48.304;11.896;2023-06-24T10:10:39;97182.63;;;22.35;46.69
45345;BME280;31078;48.304;11.896;2023-06-24T10:13:06;97174.00;;;21.91;45.54
45345;BME280;31078;48.304;11.896;2023-06-24T10:15:33;97171.69;;;22.20;46.28
45345;BME280;31078;48.304;11.896;2023-06-24T10:18:01;97171.88;;;22.07;48.25
45345;BME280;31078;48.304;11.896;2023-06-24T10:20:28;97174.97;;;21.53;48.61
45345;BME280;31078;48.304;11.896;2023-06-24T10:22:56;97173.47;;;21.59;48.81
45345;BME280;31078;48.304;11.896;2023-06-24T10:25:24;97171.38;;;21.52;49.22
45345;BME280;31078;48.304;11.896;2023-06-24T10:27:53;97164.91;;;21.68;46.89
45345;BME280;31078;48.304;11.896;2023-06-24T10:30:21;97169.84;;;21.78;49.18
45345;BME280;31078;48.304;11.896;2023-06-24T10:32:51;97162.53;;;22.16;48.39
45345;BME280;31078;48.304;11.896;2023-06-24T10:35:22;97162.91;;;22.44;46.06
45345;BME280;31078;48.304;11.896;2023-06-24T10:37:55;97165.88;;;22.58;45.17
45345;BME280;31078;48.304;11.896;2023-06-24T10:40:35;97159.66;;;22.69;44.47
45345;BME280;31078;48.304;11.896;2023-06-24T10:45:48;97152.59;;;22.75;44.13
45345;BME280;31078;48.304;11.896;2023-06-24T10:48:15;97155.47;;;22.82;43.33
45345;BME280;31078;48.304;11.896;2023-06-24T10:50:41;97141.69;;;22.89;43.64
45345;BME280;31078;48.304;11.896;2023-06-24T10:53:08;97145.91;;;22.79;45.97
45345;BME280;31078;48.304;11.896;2023-06-24T10:55:36;97137.31;;;22.88;45.60
45345;BME280;31078;48.304;11.896;2023-06-24T10:58:10;97136.41;;;23.14;44.29
45345;BME280;31078;48.304;11.896;2023-06-24T11:00:38;97128.00;;;23.07;45.67
45345;BME280;31078;48.304;11.896;2023-06-24T11:03:08;97129.09;;;22.99;43.33
45345;BME280;31078;48.304;11.896;2023-06-24T11:05:36;97120.09;;;23.09;44.64
45345;BME280;31078;48.304;11.896;2023-06-24T11:08:04;97120.94;;;23.16;45.42
45345;BME280;31078;48.304;11.896;2023-06-24T11:10:31;97128.44;;;22.79;45.50
45345;BME280;31078;48.304;11.896;2023-06-24T11:13:04;97120.97;;;22.83;44.22
45345;BME280;31078;48.304;11.896;2023-06-24T11:15:32;97123.53;;;22.65;44.43
45345;BME280;31078;48.304;11.896;2023-06-24T11:18:01;97121.28;;;22.44;46.40
45345;BME280;31078;48.304;11.896;2023-06-24T11:20:28;97121.78;;;21.97;45.25
45345;BME280;31078;48.304;11.896;2023-06-24T11:22:55;97114.25;;;21.97;46.54
45345;BME280;31078;48.304;11.896;2023-06-24T11:25:21;97114.41;;;22.08;47.67
45345;BME280;31078;48.304;11.896;2023-06-24T11:27:50;97105.59;;;21.99;47.87
45345;BME280;31078;48.304;11.896;2023-06-24T11:30:18;97105.00;;;22.12;47.55
45345;BME280;31078;48.304;11.896;2023-06-24T11:32:45;97104.47;;;22.03;46.84
45345;BME280;31078;48.304;11.896;2023-06-24T11:35:13;97103.56;;;21.96;44.50
45345;BME280;31078;48.304;11.896;2023-06-24T11:37:41;97091.56;;;21.88;45.62
45345;BME280;31078;48.304;11.896;2023-06-24T11:40:09;97088.25;;;22.05;45.75
45345;BME280;31078;48.304;11.896;2023-06-24T11:42:37;97085.03;;;22.30;47.49
45345;BME280;31078;48.304;11.896;2023-06-24T11:45:06;97088.91;;;21.95;45.17
45345;BME280;31078;48.304;11.896;2023-06-24T11:47:35;97076.69;;;22.00;47.94
45345;BME280;31078;48.304;11.896;2023-06-24T11:50:03;97081.22;;;22.11;47.49
45345;BME280;31078;48.304;11.896;2023-06-24T11:52:38;97071.31;;;22.44;50.87
45345;BME280;31078;48.304;11.896;2023-06-24T11:55:11;97064.25;;;22.84;47.85
45345;BME280;31078;48.304;11.896;2023-06-24T11:57:52;97064.78;;;22.97;44.42
45345;BME280;31078;48.304;11.896;2023-06-24T12:00:20;97061.88;;;22.86;46.93
45345;BME280;31078;48.304;11.896;2023-06-24T12:02:52;97059.03;;;22.79;45.92
45345;BME280;31078;48.304;11.896;2023-06-24T12:05:23;97054.56;;;22.71;43.42
45345;BME280;31078;48.304;11.896;2023-06-24T12:07:52;97047.97;;;22.82;45.03
45345;BME280;31078;48.304;11.896;2023-06-24T12:10:18;97054.88;;;22.96;45.35
45345;BME280;31078;48.304;11.896;2023-06-24T12:12:44;97047.13;;;23.15;45.92
45345;BME280;31078;48.304;11.896;2023-06-24T12:15:11;97053.44;;;23.12;45.30
45345;BME280;31078;48.304;11.896;2023-06-24T12:17:37;97042.44;;;23.23;45.38
45345;BME280;31078;48.304;11.896;2023-06-24T12:20:07;97043.94;;;23.13;45.56
45345;BME280;31078;48.304;11.896;2023-06-24T12:22:35;97045.31;;;23.34;43.01
45345;BME280;31078;48.304;11.896;2023-06-24T12:25:02;97035.69;;;23.28;45.09
45345;BME280;31078;48.304;11.896;2023-06-24T12:27:30;97037.00;;;23.41;42.96
45345;BME280;31078;48.304;11.896;2023-06-24T12:29:57;97027.44;;;23.35;42.89
45345;BME280;31078;48.304;11.896;2023-06-24T12:32:23;97034.53;;;23.29;42.07
45345;BME280;31078;48.304;11.896;2023-06-24T12:34:50;97030.31;;;23.01;41.72
45345;BME280;31078;48.304;11.896;2023-06-24T12:37:18;97029.25;;;23.16;45.06
45345;BME280;31078;48.304;11.896;2023-06-24T12:39:45;97015.81;;;23.22;44.79
45345;BME280;31078;48.304;11.896;2023-06-24T12:42:12;97016.25;;;23.28;43.83
45345;BME280;31078;48.304;11.896;2023-06-24T12:44:38;97015.72;;;23.11;44.81
45345;BME280;31078;48.304;11.896;2023-06-24T12:47:05;97006.22;;;23.12;43.34
45345;BME280;31078;48.304;11.896;2023-06-24T12:49:32;97007.75;;;23.03;45.03
45345;BME280;31078;48.304;11.896;2023-06-24T12:51:58;97003.34;;;23.02;44.91
45345;BME280;31078;48.304;11.896;2023-06-24T12:54:26;97001.41;;;23.06;44.52
45345;BME280;31078;48.304;11.896;2023-06-24T12:56:53;97000.28;;;23.17;45.19